Time;durP1;ratioP1;P1;durP2;ratioP2;P2;SDS_P1;SDS_P2;PMS_P1;PMS_P2;Temp;Humidity;BMP_temperature;BMP_pressure;BME280_temperature;BME280_humidity;BME280_pressure;Samples;Min_cycle;Max_cycle;Signal;HPM_P1;HPM_P2
2023/06/04 00:02:23;;;;;;;4.13;1.20;;;;;;;22.10;35.61;102066.69;5013705;28;20034;-66
2023/06/04 00:04:48;;;;;;;3.25;1.27;;;;;;;22.13;35.85;102077.06;5007176;28;20044;-65
2023/06/04 00:07:13;;;;;;;2.33;1.10;;;;;;;22.12;35.32;102067.41;5014979;28;20084;-69
2023/06/04 00:09:39;;;;;;;3.22;1.33;;;;;;;22.12;35.51;102067.41;5005901;28;20036;-66
2023/06/04 00:12:04;;;;;;;3.83;1.70;;;;;;;22.10;35.86;102062.22;5012350;28;20036;-67
2023/06/04 00:14:30;;;;;;;3.75;1.60;;;;;;;22.09;35.71;102063.16;5007161;28;20040;-66
2023/06/04 00:16:55;;;;;;;3.95;1.60;;;;;;;22.12;35.57;102048.81;5009630;28;20175;-66
2023/06/04 00:19:20;;;;;;;3.65;1.27;;;;;;;22.09;35.34;102047.22;5013700;28;20055;-66
2023/06/04 00:21:46;;;;;;;3.60;1.58;;;;;;;22.11;35.41;102055.06;5006594;28;20174;-66
2023/06/04 00:24:12;;;;;;;4.50;1.50;;;;;;;22.09;35.52;102059.66;5013310;28;20497;-67
2023/06/04 00:26:37;;;;;;;3.22;1.40;;;;;;;22.09;35.55;102060.50;5010597;28;20479;-68
2023/06/04 00:29:02;;;;;;;5.00;1.40;;;;;;;22.08;35.71;102063.31;5012467;28;20029;-66
2023/06/04 00:31:28;;;;;;;2.95;1.25;;;;;;;22.09;35.60;102068.47;5015964;28;20286;-67
2023/06/04 00:33:53;;;;;;;3.60;1.50;;;;;;;22.08;35.41;102050.03;5012902;28;20038;-67
2023/06/04 00:36:18;;;;;;;3.45;1.35;;;;;;;22.08;35.60;102061.50;5010599;28;20068;-67
2023/06/04 00:38:44;;;;;;;2.90;1.40;;;;;;;22.06;35.50;102055.47;5011763;28;20092;-69
2023/06/04 00:41:09;;;;;;;2.80;1.40;;;;;;;22.07;35.75;102064.25;5008317;28;20103;-68
2023/06/04 00:43:35;;;;;;;4.05;1.70;;;;;;;22.06;35.72;102052.81;5009005;28;20259;-67
2023/06/04 00:46:02;;;;;;;4.07;1.42;;;;;;;22.07;35.62;102062.44;5018362;28;20128;-67
2023/06/04 00:48:30;;;;;;;3.42;1.50;;;;;;;22.05;35.80;102053.78;5010305;28;20700;-67
2023/06/04 00:50:55;;;;;;;2.97;1.40;;;;;;;22.06;35.72;102052.81;5004496;28;20121;-66
2023/06/04 00:53:22;;;;;;;4.97;1.33;;;;;;;22.06;35.34;102059.91;5007541;28;20125;-67
2023/06/04 00:55:48;;;;;;;7.25;1.60;;;;;;;22.05;35.58;102051.13;5014337;28;20511;-67
2023/06/04 00:58:15;;;;;;;3.10;1.40;;;;;;;22.04;35.36;102053.88;5017057;28;20106;-64
2023/06/04 01:00:41;;;;;;;2.97;1.40;;;;;;;22.03;35.58;102057.50;5015334;28;20033;-66
2023/06/04 01:03:13;;;;;;;3.65;1.33;;;;;;;21.96;35.78;102038.56;5010914;28;20037;-66
2023/06/04 01:05:51;;;;;;;3.55;1.35;;;;;;;22.01;35.78;102054.97;5004604;28;20030;-66
2023/06/04 01:08:18;;;;;;;3.00;1.20;;;;;;;22.06;35.68;102055.47;5003491;28;20032;-67
2023/06/04 01:10:53;;;;;;;3.17;1.20;;;;;;;22.00;35.66;102052.44;5013409;28;20397;-68
2023/06/04 01:13:18;;;;;;;4.35;1.40;;;;;;;22.02;35.59;102058.47;5007533;28;20163;-66
2023/06/04 01:15:43;;;;;;;3.47;1.23;;;;;;;22.02;35.62;102063.78;5020565;28;20460;-65
2023/06/04 01:18:09;;;;;;;3.10;1.15;;;;;;;22.01;35.55;102051.47;5008753;28;20053;-67
2023/06/04 01:20:43;;;;;;;3.53;1.20;;;;;;;22.02;35.62;102061.97;5008034;28;20041;-67
2023/06/04 01:23:33;;;;;;;5.78;1.60;;;;;;;21.99;35.76;102062.22;5025166;28;20033;-69
2023/06/04 01:26:02;;;;;;;2.85;1.30;;;;;;;22.03;35.67;102062.81;5021454;28;20038;-66
2023/06/04 01:28:29;;;;;;;2.20;1.10;;;;;;;22.00;35.52;102063.91;5009943;28;20045;-66
2023/06/04 01:30:56;;;;;;;4.43;1.33;;;;;;;22.00;35.53;102057.75;5013947;28;20457;-66
2023/06/04 01:33:22;;;;;;;3.25;1.30;;;;;;;22.00;35.98;102063.91;5011497;28;20117;-66
2023/06/04 01:35:47;;;;;;;3.22;1.20;;;;;;;22.02;35.48;102072.59;5021478;28;20124;-66
2023/06/04 01:38:13;;;;;;;2.88;1.25;;;;;;;22.00;35.78;102061.25;5021022;28;20033;-67
2023/06/04 01:40:39;;;;;;;3.53;1.25;;;;;;;22.01;35.50;102070.88;5004906;28;20038;-70
2023/06/04 01:43:04;;;;;;;3.45;1.30;;;;;;;21.99;35.84;102061.38;5019879;28;20037;-68
2023/06/04 01:45:30;;;;;;;5.00;1.58;;;;;;;21.98;35.57;102060.50;5016764;28;20511;-66
2023/06/04 01:47:56;;;;;;;3.08;1.10;;;;;;;21.95;35.66;102050.13;5004726;28;20065;-69
2023/06/04 01:50:22;;;;;;;4.80;1.40;;;;;;;21.95;35.87;102058.09;5006033;28;20038;-65
2023/06/04 01:52:47;;;;;;;5.20;1.30;;;;;;;21.98;35.76;102055.19;5012289;28;20437;-66
2023/06/04 01:55:14;;;;;;;2.92;1.20;;;;;;;21.96;35.59;102058.97;5004306;28;20448;-67
2023/06/04 01:57:41;;;;;;;3.15;1.20;;;;;;;21.97;35.73;102061.50;5004456;28;20084;-66
2023/06/04 02:00:09;;;;;;;2.60;1.10;;;;;;;21.95;35.85;102063.41;5014196;28;20039;-66
2023/06/04 02:02:36;;;;;;;3.78;1.42;;;;;;;21.95;35.65;102063.41;5024034;28;20029;-65
2023/06/04 02:05:01;;;;;;;3.05;1.13;;;;;;;21.95;35.73;102057.25;5015065;28;20493;-65
2023/06/04 02:07:27;;;;;;;2.85;1.30;;;;;;;21.95;35.61;102054.59;5004167;28;20034;-66
2023/06/04 02:09:52;;;;;;;2.72;1.00;;;;;;;21.93;35.86;102057.38;5004428;28;20037;-68
2023/06/04 02:12:18;;;;;;;3.22;1.17;;;;;;;21.90;35.67;102045.22;5010552;28;20857;-68
2023/06/04 02:14:45;;;;;;;3.33;1.20;;;;;;;21.96;35.78;102054.50;5015754;28;20033;-67
2023/06/04 02:17:12;;;;;;;3.28;1.05;;;;;;;21.93;35.63;102052.06;5010822;28;20026;-65
2023/06/04 02:19:39;;;;;;;2.55;1.10;;;;;;;21.95;35.79;102047.47;5011278;28;20474;-67
2023/06/04 02:22:05;;;;;;;3.38;1.23;;;;;;;21.95;35.68;102054.59;5019224;28;20029;-70
2023/06/04 02:24:30;;;;;;;4.13;1.45;;;;;;;21.92;35.70;102055.69;5023849;28;20036;-67
2023/06/04 02:26:55;;;;;;;2.92;1.10;;;;;;;21.93;35.71;102054.72;5016225;28;20033;-67
2023/06/04 02:29:21;;;;;;;2.87;1.23;;;;;;;21.92;35.54;102048.59;5014123;28;20045;-67
2023/06/04 02:31:46;;;;;;;2.95;1.13;;;;;;;21.91;35.53;102052.19;5009227;28;20660;-68
2023/06/04 02:34:11;;;;;;;2.47;1.00;;;;;;;21.92;35.55;102047.72;5017357;28;20030;-67
2023/06/04 02:36:37;;;;;;;3.75;1.20;;;;;;;21.92;35.74;102055.69;5023282;28;20600;-66
2023/06/04 02:39:03;;;;;;;2.60;1.17;;;;;;;21.92;35.78;102061.84;5023407;28;20111;-68
2023/06/04 02:41:28;;;;;;;3.03;1.30;;;;;;;21.93;35.63;102065.34;5022993;28;20425;-67
2023/06/04 02:43:53;;;;;;;2.03;1.02;;;;;;;21.90;35.61;102055.84;5012765;28;20038;-65
2023/06/04 02:46:18;;;;;;;2.97;1.10;;;;;;;21.89;35.62;102059.44;5003572;28;20041;-67
2023/06/04 02:48:44;;;;;;;3.25;1.20;;;;;;;21.90;35.79;102054.97;5008418;28;20033;-67
2023/06/04 02:51:10;;;;;;;3.75;1.33;;;;;;;21.91;35.76;102059.31;5010502;28;20030;-65
2023/06/04 02:53:36;;;;;;;2.47;1.13;;;;;;;21.90;35.68;102061.13;5007775;28;20117;-69
2023/06/04 02:56:01;;;;;;;3.83;0.95;;;;;;;21.90;35.73;102069.09;5020004;28;20241;-68
2023/06/04 02:58:28;;;;;;;2.88;1.23;;;;;;;21.89;35.97;102062.09;5022979;28;20037;-67
2023/06/04 03:00:54;;;;;;;2.28;1.05;;;;;;;21.89;35.49;102064.75;5017870;28;20034;-66
2023/06/04 03:03:20;;;;;;;2.85;1.10;;;;;;;21.90;35.79;102060.28;5003720;28;20053;-66
2023/06/04 03:05:46;;;;;;;5.68;1.33;;;;;;;21.88;35.62;102062.22;5003380;28;20410;-67
2023/06/04 03:08:11;;;;;;;4.03;1.20;;;;;;;21.90;35.68;102062.94;5003046;28;20026;-69
2023/06/04 03:10:37;;;;;;;4.22;1.17;;;;;;;21.89;35.53;102063.91;5006186;28;20037;-65
2023/06/04 03:13:03;;;;;;;3.28;1.15;;;;;;;21.87;35.69;102061.38;5022922;28;20032;-69
2023/06/04 03:15:28;;;;;;;2.35;1.00;;;;;;;21.89;35.69;102059.44;5019796;28;20600;-69
2023/06/04 03:17:53;;;;;;;3.50;1.20;;;;;;;21.87;35.71;102056.06;5009886;28;20045;-67
2023/06/04 03:20:19;;;;;;;3.90;1.20;;;;;;;21.89;35.77;102055.94;5022882;28;20273;-66
2023/06/04 03:22:44;;;;;;;2.53;1.10;;;;;;;21.87;35.48;102050.75;5022450;28;20064;-65
2023/06/04 03:25:09;;;;;;;2.92;1.27;;;;;;;21.84;35.65;102045.69;5021959;28;20033;-68
2023/06/04 03:27:35;;;;;;;3.17;1.02;;;;;;;21.87;35.43;102056.06;5022515;28;20052;-66
2023/06/04 03:30:01;;;;;;;2.15;0.98;;;;;;;21.88;35.63;102051.59;5022019;28;20365;-67
2023/06/04 03:32:26;;;;;;;2.88;1.20;;;;;;;21.87;35.33;102053.41;5004913;28;20033;-66
2023/06/04 03:34:52;;;;;;;3.30;1.00;;;;;;;21.86;35.64;102059.69;5012166;28;20037;-66
2023/06/04 03:37:17;;;;;;;2.35;1.10;;;;;;;21.85;35.46;102052.66;5006541;28;20034;-67
2023/06/04 03:39:43;;;;;;;1.95;1.00;;;;;;;21.86;35.61;102056.19;5002294;28;20121;-68
2023/06/04 03:42:08;;;;;;;4.10;1.15;;;;;;;21.83;35.60;102057.25;5002145;28;20069;-66
2023/06/04 03:44:33;;;;;;;2.85;1.15;;;;;;;21.85;35.38;102057.16;5002416;28;20029;-67
2023/06/04 03:46:59;;;;;;;3.47;1.20;;;;;;;21.83;35.64;102051.97;5017463;28;20121;-70
2023/06/04 03:49:24;;;;;;;3.63;1.10;;;;;;;21.84;35.75;102058.09;5002278;28;20029;-66
2023/06/04 03:51:50;;;;;;;4.03;1.30;;;;;;;21.82;35.42;102058.22;5008860;28;20530;-67
2023/06/04 03:54:18;;;;;;;2.28;1.10;;;;;;;21.83;35.53;102061.75;5002053;28;20030;-67
2023/06/04 03:56:47;;;;;;;2.85;1.10;;;;;;;21.82;35.67;102057.38;5010809;28;20033;-67
2023/06/04 03:59:12;;;;;;;3.92;1.23;;;;;;;21.82;35.57;102058.22;5022055;28;20052;-67
2023/06/04 04:01:38;;;;;;;2.95;1.10;;;;;;;21.82;35.67;102058.22;5010349;28;20033;-66
2023/06/04 04:04:05;;;;;;;3.65;1.15;;;;;;;21.81;35.78;102056.56;5002003;28;20026;-67
2023/06/04 04:06:31;;;;;;;4.10;1.13;;;;;;;21.81;35.65;102066.28;5002215;28;20969;-68
2023/06/04 04:08:56;;;;;;;2.70;1.20;;;;;;;21.81;35.59;102061.84;5004740;28;20040;-66
2023/06/04 04:11:21;;;;;;;2.50;1.08;;;;;;;21.78;35.61;102051.47;5021854;28;20046;-65
2023/06/04 04:13:47;;;;;;;3.08;1.13;;;;;;;21.81;35.53;102055.69;5021913;28;20107;-66
2023/06/04 04:16:13;;;;;;;2.95;1.50;;;;;;;21.81;35.31;102058.34;5005111;28;20520;-66
2023/06/04 04:18:43;;;;;;;3.13;1.30;;;;;;;21.81;35.67;102061.00;5002086;28;20058;-67
2023/06/04 04:21:08;;;;;;;2.88;1.10;;;;;;;21.79;35.56;102062.94;5006657;28;20115;-67
2023/06/04 04:23:33;;;;;;;2.65;1.13;;;;;;;21.80;35.66;102059.31;5021202;28;20079;-65
2023/06/04 04:25:59;;;;;;;4.67;1.60;;;;;;;21.79;35.52;102065.59;5014449;28;20462;-66
2023/06/04 04:28:28;;;;;;;3.28;1.30;;;;;;;21.79;35.63;102058.44;5020732;28;20353;-67
2023/06/04 04:30:57;;;;;;;3.38;1.15;;;;;;;21.77;35.49;102064.88;5019951;28;20033;-67
2023/06/04 04:33:24;;;;;;;2.65;1.20;;;;;;;21.78;35.59;102062.09;5020396;28;20041;-67
2023/06/04 04:35:50;;;;;;;4.30;1.17;;;;;;;21.76;35.42;102056.03;5001759;28;20069;-69
2023/06/04 04:38:17;;;;;;;3.92;1.20;;;;;;;21.79;35.59;102068.22;5001292;28;20534;-66
2023/06/04 04:40:42;;;;;;;2.28;1.10;;;;;;;21.76;35.42;102057.84;5017941;28;20025;-66
2023/06/04 04:43:07;;;;;;;2.80;1.10;;;;;;;21.76;35.66;102068.47;5013969;28;20119;-65
2023/06/04 04:45:33;;;;;;;2.67;1.00;;;;;;;21.76;35.53;102065.81;5017322;28;20490;-68
2023/06/04 04:47:58;;;;;;;2.53;1.00;;;;;;;21.78;35.63;102069.19;5001181;28;20290;-67
2023/06/04 04:50:23;;;;;;;2.23;1.00;;;;;;;21.78;35.42;102071.84;5013460;28;20069;-68
2023/06/04 04:52:48;;;;;;;2.58;1.10;;;;;;;21.73;35.48;102069.56;5019286;28;20263;-67
2023/06/04 04:55:14;;;;;;;2.63;1.20;;;;;;;21.77;35.67;102076.31;5019591;28;20029;-68
2023/06/04 04:57:39;;;;;;;2.30;1.10;;;;;;;21.77;35.68;102071.00;5018501;28;20259;-67
2023/06/04 05:00:07;;;;;;;2.75;1.10;;;;;;;21.77;35.74;102070.16;5021411;28;20033;-68
2023/06/04 05:02:34;;;;;;;2.63;1.10;;;;;;;21.74;35.50;102069.41;5001660;28;20072;-66
2023/06/04 05:04:59;;;;;;;3.42;1.20;;;;;;;21.76;35.64;102065.81;5016322;28;20459;-67
2023/06/04 05:07:25;;;;;;;2.77;1.03;;;;;;;21.77;36.28;102078.13;5008757;28;20088;-65
2023/06/04 05:09:50;;;;;;;2.97;1.27;;;;;;;21.76;35.60;102071.13;5001107;28;20751;-66
2023/06/04 05:12:15;;;;;;;3.45;1.13;;;;;;;21.72;35.70;102073.19;5001370;28;20034;-67
2023/06/04 05:14:41;;;;;;;4.20;1.20;;;;;;;21.75;35.93;102080.91;5019777;28;20025;-67
2023/06/04 05:17:09;;;;;;;2.63;1.00;;;;;;;21.75;35.60;102086.22;5020584;28;20033;-67
2023/06/04 05:19:34;;;;;;;1.92;1.02;;;;;;;21.75;35.60;102088.88;5001537;28;20057;-66
2023/06/04 05:22:00;;;;;;;2.88;1.30;;;;;;;21.75;35.71;102086.22;5008664;28;20038;-67
2023/06/04 05:24:26;;;;;;;3.20;1.30;;;;;;;21.73;35.88;102081.03;5019341;28;20030;-70
2023/06/04 05:26:51;;;;;;;4.28;1.20;;;;;;;21.70;35.77;102078.59;5007434;28;20059;-68
2023/06/04 05:29:16;;;;;;;3.72;1.10;;;;;;;21.71;35.72;102080.31;5011082;28;20026;-67
2023/06/04 05:31:42;;;;;;;2.83;1.10;;;;;;;21.73;35.75;102088.97;5014284;28;20433;-70
2023/06/04 05:34:08;;;;;;;2.53;1.00;;;;;;;21.71;35.90;102088.25;5013484;28;20533;-69
2023/06/04 05:36:33;;;;;;;2.70;1.10;;;;;;;21.73;35.94;102085.50;5013974;28;20478;-67
2023/06/04 05:38:59;;;;;;;3.70;1.45;;;;;;;21.72;35.78;102086.44;5011637;28;20069;-67
2023/06/04 05:41:25;;;;;;;2.72;1.20;;;;;;;21.70;35.96;102073.28;5008324;28;20124;-65
2023/06/04 05:43:51;;;;;;;1.75;1.00;;;;;;;21.73;35.87;102083.69;5005662;28;20050;-70
2023/06/04 05:46:16;;;;;;;2.33;1.10;;;;;;;21.69;35.99;102073.41;5013558;28;20139;-66
2023/06/04 05:48:41;;;;;;;3.88;1.20;;;;;;;21.70;36.35;102075.13;5015583;28;20038;-65
2023/06/04 05:51:07;;;;;;;2.72;1.20;;;;;;;21.71;36.07;102068.81;5010423;28;20032;-68
2023/06/04 05:53:33;;;;;;;2.88;1.20;;;;;;;21.71;36.20;102074.13;5015566;28;20037;-67
2023/06/04 05:55:58;;;;;;;3.05;1.10;;;;;;;21.73;36.42;102085.50;5008991;28;20112;-65
2023/06/04 05:58:23;;;;;;;1.98;1.05;;;;;;;21.70;36.21;102081.25;5001027;28;20033;-68
2023/06/04 06:00:50;;;;;;;2.20;1.00;;;;;;;21.72;36.07;102086.44;5018239;28;20061;-66
2023/06/04 06:03:16;;;;;;;2.55;1.10;;;;;;;21.70;36.23;102080.41;5019786;28;20484;-67
2023/06/04 06:05:42;;;;;;;2.85;1.20;;;;;;;21.70;36.18;102086.56;5011179;28;20045;-70
2023/06/04 06:08:07;;;;;;;3.75;1.13;;;;;;;21.70;36.38;102091.88;5013309;28;20037;-68
2023/06/04 06:10:33;;;;;;;2.33;0.90;;;;;;;21.69;36.42;102084.03;5023744;28;20029;-66
2023/06/04 06:13:00;;;;;;;2.78;1.00;;;;;;;21.71;36.30;102084.75;5017918;28;20127;-67
2023/06/04 06:15:25;;;;;;;2.95;1.00;;;;;;;21.70;36.17;102091.88;5011594;28;20064;-66
2023/06/04 06:17:51;;;;;;;1.65;0.85;;;;;;;21.70;36.18;102088.38;5018800;28;20383;-67
2023/06/04 06:20:17;;;;;;;2.67;1.10;;;;;;;21.69;36.38;102084.84;5017761;28;20033;-67
2023/06/04 06:22:43;;;;;;;2.45;0.98;;;;;;;21.70;36.12;102091.88;5004024;28;20406;-67
2023/06/04 06:25:08;;;;;;;2.03;1.10;;;;;;;21.69;36.35;102087.50;5015684;28;20473;-69
2023/06/04 06:27:34;;;;;;;3.35;1.10;;;;;;;21.68;36.56;102088.50;5015358;28;20038;-67
2023/06/04 06:30:00;;;;;;;3.00;1.00;;;;;;;21.71;36.46;102090.03;5023602;28;20078;-67
2023/06/04 06:32:27;;;;;;;3.55;1.20;;;;;;;21.71;35.95;102090.91;5014592;28;20042;-64
2023/06/04 06:34:52;;;;;;;4.03;1.15;;;;;;;21.71;36.47;102104.19;5003997;28;20045;-68
2023/06/04 06:37:17;;;;;;;3.28;1.20;;;;;;;21.70;36.41;102106.94;5015247;28;20395;-66
2023/06/04 06:39:43;;;;;;;3.15;1.08;;;;;;;21.69;37.07;102115.88;5015768;28;20175;-65
2023/06/04 06:42:08;;;;;;;2.88;1.08;;;;;;;21.68;37.31;102104.41;5023486;28;20492;-65
2023/06/04 06:44:33;;;;;;;2.33;1.17;;;;;;;21.69;37.29;102106.09;5023294;28;20059;-65
2023/06/04 06:46:59;;;;;;;4.05;1.30;;;;;;;21.72;37.41;102108.50;5010592;28;20455;-65
2023/06/04 06:49:24;;;;;;;5.45;1.40;;;;;;;21.71;37.34;102106.84;5009105;28;20451;-65
2023/06/04 06:51:49;;;;;;;4.70;1.20;;;;;;;21.77;37.27;102117.94;5023173;28;20064;-68
2023/06/04 06:54:16;;;;;;;3.00;1.30;;;;;;;21.76;37.66;102118.88;5011952;28;20038;-66
2023/06/04 06:56:41;;;;;;;5.25;1.80;;;;;;;21.74;37.98;102119.00;5009325;28;20269;-68
2023/06/04 06:59:06;;;;;;;4.28;1.05;;;;;;;21.75;37.95;102126.00;5006499;28;20394;-66
2023/06/04 07:01:33;;;;;;;3.57;1.30;;;;;;;21.74;37.87;102119.00;5005002;28;20080;-66
2023/06/04 07:03:58;;;;;;;5.13;1.40;;;;;;;21.70;38.47;102113.09;5017828;28;20263;-66
2023/06/04 07:06:24;;;;;;;3.72;1.40;;;;;;;21.71;38.69;102120.09;5010252;28;20493;-67
2023/06/04 07:08:49;;;;;;;3.08;1.00;;;;;;;21.75;38.59;102136.63;5015059;28;20033;-65
2023/06/04 07:11:16;;;;;;;5.22;1.35;;;;;;;21.76;38.81;102124.19;5003479;28;20065;-66
2023/06/04 07:13:42;;;;;;;3.58;1.23;;;;;;;21.73;39.09;102122.63;5004346;28;20026;-68
2023/06/04 07:16:07;;;;;;;6.53;2.88;;;;;;;21.75;38.72;102128.66;5004685;28;20043;-65
2023/06/04 07:18:32;;;;;;;4.15;1.40;;;;;;;21.74;38.79;102121.66;5002540;28;20046;-67
2023/06/04 07:20:58;;;;;;;4.10;1.17;;;;;;;21.76;38.84;102129.50;5019260;28;20080;-67
2023/06/04 07:23:23;;;;;;;4.88;1.20;;;;;;;21.77;39.17;102131.19;5010744;28;20716;-67
2023/06/04 07:25:49;;;;;;;5.53;1.30;;;;;;;21.77;38.82;102120.59;5008342;28;20069;-66
2023/06/04 07:28:14;;;;;;;5.45;1.40;;;;;;;21.87;38.33;102116.25;5007173;28;20486;-70
2023/06/04 07:30:40;;;;;;;3.47;1.02;;;;;;;21.91;38.13;102120.38;5019186;28;20091;-70
2023/06/04 07:33:06;;;;;;;3.95;1.05;;;;;;;21.94;37.86;102109.50;5006114;28;20026;-69
2023/06/04 07:35:31;;;;;;;4.05;1.23;;;;;;;22.00;37.60;102118.78;5002395;28;20088;-69
2023/06/04 07:37:56;;;;;;;3.35;1.10;;;;;;;22.00;37.53;102117.00;5019214;28;20484;-68
2023/06/04 07:40:22;;;;;;;3.60;1.13;;;;;;;22.01;37.47;102121.31;5013409;28;20076;-68
2023/06/04 07:42:48;;;;;;;7.22;1.50;;;;;;;21.99;38.01;102125.09;5014487;28;20271;-67
2023/06/04 07:45:14;;;;;;;7.72;1.63;;;;;;;21.96;37.47;102115.53;5002248;28;20389;-68
2023/06/04 07:47:39;;;;;;;3.38;1.10;;;;;;;22.00;37.60;102124.97;5003544;28;20026;-69
2023/06/04 07:50:05;;;;;;;3.40;1.13;;;;;;;22.02;37.44;102116.88;5011952;28;20057;-69
2023/06/04 07:52:31;;;;;;;5.20;1.23;;;;;;;22.01;37.52;102123.16;5015023;28;20975;-68
2023/06/04 07:54:57;;;;;;;3.85;1.20;;;;;;;22.04;37.71;102125.56;5006538;28;20037;-67
2023/06/04 07:57:22;;;;;;;9.05;1.38;;;;;;;22.03;37.13;102114.09;5004217;28;20092;-67
2023/06/04 07:59:48;;;;;;;4.82;1.42;;;;;;;22.10;37.40;102125.91;5009741;28;20426;-68
2023/06/04 08:02:14;;;;;;;3.58;1.20;;;;;;;22.15;37.01;102119.41;5011521;28;20033;-69
2023/06/04 08:04:40;;;;;;;4.00;1.10;;;;;;;22.17;37.05;102125.44;5015989;28;20029;-67
2023/06/04 08:07:05;;;;;;;3.90;1.08;;;;;;;22.20;37.24;102123.38;5007530;28;20052;-68
2023/06/04 08:09:31;;;;;;;3.33;1.20;;;;;;;22.19;37.22;102120.84;5011989;28;20592;-67
2023/06/04 08:11:56;;;;;;;2.70;1.05;;;;;;;22.20;37.19;102123.38;5004074;28;20080;-68
2023/06/04 08:14:22;;;;;;;6.85;1.77;;;;;;;22.20;37.20;102125.19;5013278;28;20079;-67
2023/06/04 08:16:47;;;;;;;4.32;1.38;;;;;;;22.19;37.20;102123.50;5014383;28;20030;-66
2023/06/04 08:19:13;;;;;;;3.53;1.20;;;;;;;22.19;37.07;102119.06;5011324;28;20098;-66
2023/06/04 08:21:40;;;;;;;3.92;1.30;;;;;;;22.18;37.03;102122.66;5008127;28;20029;-67
2023/06/04 08:24:05;;;;;;;2.50;1.10;;;;;;;22.20;36.74;102122.53;5012718;28;20025;-67
2023/06/04 08:26:32;;;;;;;4.75;1.20;;;;;;;22.25;36.85;102125.69;5014169;28;20036;-69
2023/06/04 08:28:57;;;;;;;9.40;1.40;;;;;;;22.26;37.08;102132.69;5005706;28;20030;-66
2023/06/04 08:31:22;;;;;;;2.50;1.00;;;;;;;22.27;37.04;102124.59;5002987;28;20525;-68
2023/06/04 08:33:48;;;;;;;4.75;1.20;;;;;;;22.28;37.04;102128.09;5008904;28;20025;-68
2023/06/04 08:36:14;;;;;;;5.00;1.02;;;;;;;22.31;36.87;102114.59;5009044;28;20037;-69
2023/06/04 08:38:40;;;;;;;4.55;1.10;;;;;;;22.34;36.92;102119.69;5008571;28;20034;-65
2023/06/04 08:41:28;;;;;;;4.03;1.20;;;;;;;22.34;37.00;102127.63;5009755;28;20041;-65
2023/06/04 08:43:57;;;;;;;2.03;0.90;;;;;;;22.39;36.89;102119.31;5010994;28;20030;-70
2023/06/04 08:46:23;;;;;;;3.95;1.08;;;;;;;22.43;37.11;102120.75;5005326;28;20063;-68
2023/06/04 08:48:50;;;;;;;8.77;1.20;;;;;;;22.43;37.19;102115.44;5010417;28;20053;-70
2023/06/04 08:51:15;;;;;;;4.82;0.98;;;;;;;22.40;36.62;102115.69;5002957;28;20429;-69
2023/06/04 08:53:42;;;;;;;4.85;1.23;;;;;;;22.40;36.54;102124.50;5010251;28;20087;-70
2023/06/04 08:56:08;;;;;;;3.03;0.95;;;;;;;22.41;36.69;102130.66;5014751;28;20386;-71
2023/06/04 08:58:36;;;;;;;3.60;0.98;;;;;;;22.39;36.84;102125.47;5007673;28;20124;-71
2023/06/04 09:01:01;;;;;;;4.85;1.10;;;;;;;22.39;37.00;102136.09;5008362;28;20038;-68
2023/06/04 09:03:29;;;;;;;4.13;1.27;;;;;;;22.33;36.49;102125.94;5009163;28;20513;-67
2023/06/04 09:05:56;;;;;;;2.95;1.08;;;;;;;22.36;37.09;102128.34;5006821;28;20064;-67
2023/06/04 09:08:24;;;;;;;7.22;1.25;;;;;;;22.38;37.08;102129.09;5006233;28;20032;-65
2023/06/04 09:10:53;;;;;;;5.00;1.15;;;;;;;22.38;36.89;102139.72;5009821;28;20462;-65
2023/06/04 09:13:21;;;;;;;3.80;1.00;;;;;;;22.42;36.77;102135.84;5006870;28;20033;-68
2023/06/04 09:15:58;;;;;;;3.53;1.40;;;;;;;22.38;33.39;102137.06;5030056;28;20038;-69
2023/06/04 09:18:25;;;;;;;6.47;1.17;;;;;;;22.43;35.20;102142.84;5011779;28;20042;-66
2023/06/04 09:21:07;;;;;;;3.95;1.02;;;;;;;22.44;35.79;102144.53;5005927;28;20030;-68
2023/06/04 09:23:43;;;;;;;4.35;1.00;;;;;;;22.44;35.70;102130.41;5012914;28;20119;-68
2023/06/04 09:26:09;;;;;;;4.20;1.10;;;;;;;22.46;35.54;102139.94;5008019;28;20068;-65
2023/06/04 09:28:36;;;;;;;6.63;1.15;;;;;;;22.40;35.98;102129.81;5010782;28;20115;-67
2023/06/04 09:31:02;;;;;;;4.95;1.05;;;;;;;22.44;35.84;102141.03;5008635;28;20541;-67
2023/06/04 09:33:28;;;;;;;4.78;1.17;;;;;;;22.41;36.23;102138.63;5008257;28;20042;-69
2023/06/04 09:35:57;;;;;;;6.18;2.28;;;;;;;22.43;36.21;102136.69;5010359;28;20037;-69
2023/06/04 09:38:23;;;;;;;3.20;1.10;;;;;;;22.41;35.98;102130.66;5010522;28;20036;-73
2023/06/04 09:40:49;;;;;;;5.40;1.10;;;;;;;22.39;36.46;102127.28;5015919;28;20473;-70
2023/06/04 09:43:23;;;;;;;4.05;0.90;;;;;;;22.34;36.72;102129.47;5013577;28;20037;-69
2023/06/04 09:45:48;;;;;;;5.20;1.00;;;;;;;22.39;36.78;102135.25;5014591;28;20072;-69
2023/06/04 09:48:23;;;;;;;6.45;1.05;;;;;;;22.34;36.29;102122.34;5017041;28;20073;-70
2023/06/04 09:50:48;;;;;;;3.25;1.33;;;;;;;22.36;35.36;102130.19;5017947;28;20038;-70
2023/06/04 09:53:23;;;;;;;4.03;1.00;;;;;;;22.33;35.22;102133.91;5015264;28;20482;-68
2023/06/04 09:55:58;;;;;;;5.25;1.13;;;;;;;22.31;35.78;102121.75;5015737;28;20040;-70
2023/06/04 09:58:28;;;;;;;3.13;1.05;;;;;;;22.32;35.65;102123.41;5014614;28;20030;-71
2023/06/04 10:00:58;;;;;;;5.75;1.20;;;;;;;22.27;35.73;102124.59;5012134;28;20123;-68
2023/06/04 10:03:33;;;;;;;3.42;1.13;;;;;;;22.25;35.60;102115.88;5019122;28;20432;-68
2023/06/04 10:06:02;;;;;;;3.30;1.08;;;;;;;22.24;35.47;102122.19;5012493;28;20495;-69
2023/06/04 10:08:28;;;;;;;2.67;1.08;;;;;;;22.24;35.52;102116.88;5014483;28;20038;-68
2023/06/04 10:11:02;;;;;;;4.15;1.00;;;;;;;22.22;35.60;102121.47;5015612;28;20037;-68
2023/06/04 10:13:31;;;;;;;2.83;0.90;;;;;;;22.23;35.13;102120.47;5016088;28;20038;-69
2023/06/04 10:16:01;;;;;;;2.90;1.10;;;;;;;22.21;35.14;102118.94;5016342;28;20046;-68
2023/06/04 10:18:29;;;;;;;2.72;1.00;;;;;;;22.16;35.46;102124.59;5015546;28;20057;-67
2023/06/04 10:20:56;;;;;;;2.17;1.00;;;;;;;22.17;34.73;102125.44;5016050;28;20068;-69
2023/06/04 10:23:22;;;;;;;3.58;0.85;;;;;;;22.18;35.00;102121.84;5020306;28;20033;-67
2023/06/04 10:25:49;;;;;;;2.70;1.00;;;;;;;22.18;35.09;102116.53;5011247;28;20049;-70
2023/06/04 10:28:15;;;;;;;4.65;1.30;;;;;;;22.15;33.76;102117.59;5011347;28;20098;-68
2023/06/04 10:30:40;;;;;;;4.00;1.10;;;;;;;22.10;34.51;102127.75;5021110;28;20036;-69
2023/06/04 10:33:06;;;;;;;6.15;1.10;;;;;;;22.08;35.41;102122.56;5015950;28;20034;-69
2023/06/04 10:35:35;;;;;;;5.00;1.30;;;;;;;22.04;35.49;102122.91;5020448;28;20102;-69
2023/06/04 10:38:09;;;;;;;2.72;1.00;;;;;;;22.05;35.81;102120.13;5005232;28;20037;-69
2023/06/04 10:40:35;;;;;;;3.42;1.13;;;;;;;22.03;35.43;102114.09;5006213;28;20080;-67
2023/06/04 10:43:13;;;;;;;3.67;0.90;;;;;;;22.05;35.22;102114.81;5010972;28;20141;-67
2023/06/04 10:45:40;;;;;;;3.78;1.40;;;;;;;22.04;35.61;102109.63;5012139;28;20034;-68
2023/06/04 10:48:10;;;;;;;4.30;1.10;;;;;;;22.04;35.55;102117.59;5017123;28;20033;-68
2023/06/04 10:50:48;;;;;;;4.20;1.23;;;;;;;22.05;35.27;102121.94;5009908;28;20041;-68
2023/06/04 10:53:14;;;;;;;6.82;1.00;;;;;;;22.11;35.15;102126.75;5020078;28;20652;-71
2023/06/04 10:55:49;;;;;;;3.20;1.10;;;;;;;22.07;35.17;102114.69;5021838;28;20037;-69
2023/06/04 10:58:15;;;;;;;4.68;0.93;;;;;;;22.06;34.85;102116.53;5015483;28;20034;-73
2023/06/04 11:00:47;;;;;;;4.85;1.20;;;;;;;22.09;35.62;102121.56;5008111;28;20048;-68
2023/06/04 11:03:13;;;;;;;3.28;1.10;;;;;;;22.08;35.61;102119.91;5010037;28;20037;-67
2023/06/04 11:05:40;;;;;;;4.28;1.00;;;;;;;22.08;35.13;102119.06;5007619;28;20037;-68
2023/06/04 11:08:07;;;;;;;3.08;1.15;;;;;;;22.05;35.74;102114.00;5006345;28;20397;-67
2023/06/04 11:10:37;;;;;;;3.97;1.20;;;;;;;22.05;35.55;102112.16;5023103;28;20242;-71
2023/06/04 11:13:03;;;;;;;8.68;1.00;;;;;;;22.16;36.40;102118.44;5012343;28;20038;-68
2023/06/04 11:15:43;;;;;;;5.40;1.17;;;;;;;22.25;36.46;102112.41;5010668;28;20108;-70
2023/06/04 11:18:13;;;;;;;3.40;0.98;;;;;;;22.33;36.15;102104.69;5014518;28;20129;-66
2023/06/04 11:20:39;;;;;;;6.63;1.08;;;;;;;22.37;36.33;102110.63;5012156;28;20049;-68
2023/06/04 11:23:05;;;;;;;3.13;1.20;;;;;;;22.39;36.19;102100.72;5007293;28;20370;-69